sensor_id;sensor_type;location;lat;lon;timestamp;temperature;humidity
3592;DHT22;1810;48.720;9.094;2024-02-23T16:18:41;8.80;99.90
3592;DHT22;1810;48.720;9.094;2024-02-23T16:21:09;7.40;99.90
3592;DHT22;1810;48.720;9.094;2024-02-23T16:23:41;7.20;99.90
3592;DHT22;1810;48.720;9.094;2024-02-23T16:26:10;7.10;99.90
3592;DHT22;1810;48.720;9.094;2024-02-23T16:28:38;7.10;99.90
3592;DHT22;1810;48.720;9.094;2024-02-23T16:31:08;7.10;99.90
3592;DHT22;1810;48.720;9.094;2024-02-23T16:33:36;7.20;99.90
3592;DHT22;1810;48.720;9.094;2024-02-23T16:36:04;7.20;99.90
3592;DHT22;1810;48.720;9.094;2024-02-23T16:38:33;7.30;99.90
3592;DHT22;1810;48.720;9.094;2024-02-23T16:41:02;7.30;99.90
3592;DHT22;1810;48.720;9.094;2024-02-23T16:43:30;7.40;99.90
3592;DHT22;1810;48.720;9.094;2024-02-23T16:46:00;7.40;99.90
3592;DHT22;1810;48.720;9.094;2024-02-23T16:48:30;7.30;99.90
3592;DHT22;1810;48.720;9.094;2024-02-23T16:50:58;7.20;99.90
3592;DHT22;1810;48.720;9.094;2024-02-23T16:53:26;7.10;99.90
3592;DHT22;1810;48.720;9.094;2024-02-23T16:55:55;7.00;99.90
3592;DHT22;1810;48.720;9.094;2024-02-23T16:58:27;6.90;99.90
3592;DHT22;1810;48.720;9.094;2024-02-23T17:01:00;6.80;99.90
3592;DHT22;1810;48.720;9.094;2024-02-23T17:03:29;6.70;99.90
3592;DHT22;1810;48.720;9.094;2024-02-23T17:05:58;6.70;99.90
3592;DHT22;1810;48.720;9.094;2024-02-23T17:08:28;6.70;99.90
3592;DHT22;1810;48.720;9.094;2024-02-23T17:10:56;6.80;99.90
3592;DHT22;1810;48.720;9.094;2024-02-23T17:13:25;6.70;99.90
3592;DHT22;1810;48.720;9.094;2024-02-23T17:15:53;6.70;99.90
3592;DHT22;1810;48.720;9.094;2024-02-23T17:18:21;6.70;99.90
3592;DHT22;1810;48.720;9.094;2024-02-23T17:20:51;6.80;99.90
3592;DHT22;1810;48.720;9.094;2024-02-23T17:23:22;6.80;99.90
3592;DHT22;1810;48.720;9.094;2024-02-23T17:25:50;6.60;99.90
3592;DHT22;1810;48.720;9.094;2024-02-23T17:28:19;6.60;99.90
3592;DHT22;1810;48.720;9.094;2024-02-23T17:30:47;6.60;99.90
3592;DHT22;1810;48.720;9.094;2024-02-23T17:33:16;6.70;99.90
3592;DHT22;1810;48.720;9.094;2024-02-23T17:35:46;6.70;99.90
3592;DHT22;1810;48.720;9.094;2024-02-23T17:38:17;6.70;99.90
3592;DHT22;1810;48.720;9.094;2024-02-23T17:40:45;6.60;99.90
3592;DHT22;1810;48.720;9.094;2024-02-23T17:43:17;6.50;99.90
3592;DHT22;1810;48.720;9.094;2024-02-23T17:45:45;6.40;99.90
3592;DHT22;1810;48.720;9.094;2024-02-23T17:48:13;6.20;99.90
3592;DHT22;1810;48.720;9.094;2024-02-23T17:50:41;6.30;99.90
3592;DHT22;1810;48.720;9.094;2024-02-23T17:53:09;6.30;99.90
3592;DHT22;1810;48.720;9.094;2024-02-23T17:55:39;6.20;99.90
3592;DHT22;1810;48.720;9.094;2024-02-23T17:58:07;6.20;99.90
3592;DHT22;1810;48.720;9.094;2024-02-23T18:00:46;6.20;99.90
3592;DHT22;1810;48.720;9.094;2024-02-23T18:03:14;6.10;99.90
3592;DHT22;1810;48.720;9.094;2024-02-23T18:05:42;6.10;99.90
3592;DHT22;1810;48.720;9.094;2024-02-23T18:08:10;6.10;99.90
3592;DHT22;1810;48.720;9.094;2024-02-23T18:10:40;6.00;99.90
3592;DHT22;1810;48.720;9.094;2024-02-23T19:35:14;5.90;99.90
3592;DHT22;1810;48.720;9.094;2024-02-23T19:38:08;5.10;99.90
3592;DHT22;1810;48.720;9.094;2024-02-23T19:40:37;5.00;99.90
3592;DHT22;1810;48.720;9.094;2024-02-23T19:43:05;5.00;99.90
3592;DHT22;1810;48.720;9.094;2024-02-23T19:45:33;5.00;99.90
3592;DHT22;1810;48.720;9.094;2024-02-23T19:48:02;5.00;99.90
3592;DHT22;1810;48.720;9.094;2024-02-23T19:50:30;5.00;99.90
3592;DHT22;1810;48.720;9.094;2024-02-23T19:52:58;5.00;99.90
3592;DHT22;1810;48.720;9.094;2024-02-23T19:55:28;5.00;99.90
3592;DHT22;1810;48.720;9.094;2024-02-23T19:57:57;4.90;99.90
3592;DHT22;1810;48.720;9.094;2024-02-23T20:00:25;4.80;99.90
3592;DHT22;1810;48.720;9.094;2024-02-23T20:02:54;4.80;99.90
3592;DHT22;1810;48.720;9.094;2024-02-23T20:05:22;4.80;99.90
3592;DHT22;1810;48.720;9.094;2024-02-23T20:07:52;4.70;99.90
3592;DHT22;1810;48.720;9.094;2024-02-23T20:10:21;4.70;99.90
3592;DHT22;1810;48.720;9.094;2024-02-23T20:12:51;4.70;99.90
3592;DHT22;1810;48.720;9.094;2024-02-23T20:15:19;4.60;99.90
3592;DHT22;1810;48.720;9.094;2024-02-23T20:17:47;4.60;99.90
3592;DHT22;1810;48.720;9.094;2024-02-23T20:20:16;4.50;99.90
3592;DHT22;1810;48.720;9.094;2024-02-23T20:22:45;4.60;99.90
3592;DHT22;1810;48.720;9.094;2024-02-23T20:25:13;4.50;99.90
3592;DHT22;1810;48.720;9.094;2024-02-23T20:27:41;4.50;99.90
3592;DHT22;1810;48.720;9.094;2024-02-23T20:30:12;4.40;99.90
3592;DHT22;1810;48.720;9.094;2024-02-23T20:57:34;4.40;99.90
3592;DHT22;1810;48.720;9.094;2024-02-23T21:00:03;4.30;99.90
3592;DHT22;1810;48.720;9.094;2024-02-23T21:02:32;4.30;99.90
3592;DHT22;1810;48.720;9.094;2024-02-23T21:05:02;4.40;99.90
3592;DHT22;1810;48.720;9.094;2024-02-23T21:07:30;4.30;99.90
3592;DHT22;1810;48.720;9.094;2024-02-23T21:09:59;4.30;99.90
3592;DHT22;1810;48.720;9.094;2024-02-23T21:12:28;4.20;99.90
3592;DHT22;1810;48.720;9.094;2024-02-23T21:14:56;4.10;99.90
3592;DHT22;1810;48.720;9.094;2024-02-23T21:17:24;4.20;99.90
3592;DHT22;1810;48.720;9.094;2024-02-23T21:19:53;4.00;99.90
3592;DHT22;1810;48.720;9.094;2024-02-23T21:22:22;4.00;99.90
3592;DHT22;1810;48.720;9.094;2024-02-23T21:24:50;4.00;99.90
3592;DHT22;1810;48.720;9.094;2024-02-23T21:27:18;4.00;99.90
3592;DHT22;1810;48.720;9.094;2024-02-23T21:29:47;4.00;99.90
3592;DHT22;1810;48.720;9.094;2024-02-23T21:32:15;4.00;99.90
3592;DHT22;1810;48.720;9.094;2024-02-23T21:34:43;4.00;99.90
3592;DHT22;1810;48.720;9.094;2024-02-23T21:37:14;4.10;99.90
3592;DHT22;1810;48.720;9.094;2024-02-23T21:39:45;4.10;99.90
3592;DHT22;1810;48.720;9.094;2024-02-23T21:42:14;4.20;99.90
3592;DHT22;1810;48.720;9.094;2024-02-23T21:44:42;4.20;99.90
3592;DHT22;1810;48.720;9.094;2024-02-23T21:47:11;4.20;99.90
3592;DHT22;1810;48.720;9.094;2024-02-23T21:49:39;4.10;99.90
3592;DHT22;1810;48.720;9.094;2024-02-23T21:52:08;4.20;99.90
3592;DHT22;1810;48.720;9.094;2024-02-23T21:54:36;4.20;99.90
3592;DHT22;1810;48.720;9.094;2024-02-23T21:57:08;4.20;99.90
3592;DHT22;1810;48.720;9.094;2024-02-23T21:59:36;4.20;99.90
3592;DHT22;1810;48.720;9.094;2024-02-23T22:02:05;4.30;99.90
3592;DHT22;1810;48.720;9.094;2024-02-23T22:04:34;4.30;99.90
3592;DHT22;1810;48.720;9.094;2024-02-23T22:07:05;4.30;99.90
3592;DHT22;1810;48.720;9.094;2024-02-23T22:09:34;4.30;99.90
3592;DHT22;1810;48.720;9.094;2024-02-23T22:12:02;4.40;99.90
3592;DHT22;1810;48.720;9.094;2024-02-23T22:14:32;4.40;99.90
3592;DHT22;1810;48.720;9.094;2024-02-23T22:17:00;4.50;99.90
3592;DHT22;1810;48.720;9.094;2024-02-23T22:19:29;4.50;99.90
3592;DHT22;1810;48.720;9.094;2024-02-23T22:21:57;4.50;99.90
3592;DHT22;1810;48.720;9.094;2024-02-23T22:24:25;4.50;99.90
3592;DHT22;1810;48.720;9.094;2024-02-23T22:26:53;4.40;99.90
3592;DHT22;1810;48.720;9.094;2024-02-23T22:29:22;4.50;99.90
3592;DHT22;1810;48.720;9.094;2024-02-23T22:31:52;4.50;99.90
3592;DHT22;1810;48.720;9.094;2024-02-23T22:34:20;4.50;99.90
3592;DHT22;1810;48.720;9.094;2024-02-23T22:36:49;4.40;99.90
3592;DHT22;1810;48.720;9.094;2024-02-23T22:39:17;4.30;99.90
3592;DHT22;1810;48.720;9.094;2024-02-23T22:41:46;4.30;99.90
3592;DHT22;1810;48.720;9.094;2024-02-23T22:44:14;4.30;99.90
3592;DHT22;1810;48.720;9.094;2024-02-23T22:46:42;4.30;99.90
3592;DHT22;1810;48.720;9.094;2024-02-23T22:49:13;4.30;99.90
3592;DHT22;1810;48.720;9.094;2024-02-23T22:51:41;4.30;99.90
3592;DHT22;1810;48.720;9.094;2024-02-23T22:54:11;4.30;99.90
3592;DHT22;1810;48.720;9.094;2024-02-23T22:56:39;4.20;99.90
3592;DHT22;1810;48.720;9.094;2024-02-23T22:59:07;4.10;99.90
3592;DHT22;1810;48.720;9.094;2024-02-23T23:01:36;4.10;99.90
3592;DHT22;1810;48.720;9.094;2024-02-23T23:04:05;4.10;99.90
3592;DHT22;1810;48.720;9.094;2024-02-23T23:06:35;4.20;99.90
3592;DHT22;1810;48.720;9.094;2024-02-23T23:09:05;4.20;99.90
3592;DHT22;1810;48.720;9.094;2024-02-23T23:11:36;4.30;99.90
3592;DHT22;1810;48.720;9.094;2024-02-23T23:14:05;4.30;99.90
3592;DHT22;1810;48.720;9.094;2024-02-23T23:16:34;4.40;99.90
3592;DHT22;1810;48.720;9.094;2024-02-23T23:19:02;4.60;99.90
3592;DHT22;1810;48.720;9.094;2024-02-23T23:21:31;4.60;99.90
3592;DHT22;1810;48.720;9.094;2024-02-23T23:24:00;4.60;99.90
3592;DHT22;1810;48.720;9.094;2024-02-23T23:26:29;4.60;99.90
3592;DHT22;1810;48.720;9.094;2024-02-23T23:28:57;4.60;99.90
3592;DHT22;1810;48.720;9.094;2024-02-23T23:31:25;4.50;99.90
3592;DHT22;1810;48.720;9.094;2024-02-23T23:33:55;4.30;99.90
3592;DHT22;1810;48.720;9.094;2024-02-23T23:36:23;4.40;99.90
3592;DHT22;1810;48.720;9.094;2024-02-23T23:38:51;4.40;99.90
3592;DHT22;1810;48.720;9.094;2024-02-23T23:41:21;4.40;99.90
3592;DHT22;1810;48.720;9.094;2024-02-23T23:43:49;4.30;99.90
3592;DHT22;1810;48.720;9.094;2024-02-23T23:46:17;4.20;99.90
3592;DHT22;1810;48.720;9.094;2024-02-23T23:48:45;4.30;99.90
3592;DHT22;1810;48.720;9.094;2024-02-23T23:51:13;4.30;99.90
3592;DHT22;1810;48.720;9.094;2024-02-23T23:53:42;4.30;99.90
3592;DHT22;1810;48.720;9.094;2024-02-23T23:56:10;4.30;99.90
3592;DHT22;1810;48.720;9.094;2024-02-23T23:58:40;4.30;99.90
